Nichioh Maru — JD3267 — position and weather

sailwx.info

Track history (hours):
 
Tides and Currents Weather Stations Pressure Air Temp Water Temp Dewpoint Dewpoint Depression Visibility Wind Speed Wind Dir Waves Ship Positions

Nichioh Maru

Last reported at 2017-Apr-24 05:24 UTC. Time now 2017-Apr-24 05:30 UTC.
Position N 34°36' E 134°56'.

Length 170 m; draft 6.5 m.

Type: Cargo ship. MMSI: 431003232.

Date/timePositionNaut miles runAvg speedWind from/ knotsBaromVisibWave heightAir tempDewpointWater temp
2017-Apr-24 05:24N 34°36' E 134°56'614.2
2017-Apr-24 05:00N 34°37' E 135°02'815.4
2017-Apr-24 04:30N 34°36' E 135°12'5 9.7
2017-Apr-24 04:00N 34°41' E 135°14'1 1.2
2017-Apr-24 03:29N 34°41' E 135°13'0 0.0
2017-Apr-24 02:59N 34°41' E 135°13'0 0.0
2017-Apr-24 02:29N 34°41' E 135°13'0 0.0
2017-Apr-24 01:59N 34°41' E 135°13'0 0.0
2017-Apr-24 01:17N 34°41' E 135°13'0 0.0
2017-Apr-24 01:01N 34°41' E 135°13'3 5.0
2017-Apr-24 00:30N 34°39' E 135°16'612.5
2017-Apr-24 00:00N 34°33' E 135°14'917.7
2017-Apr-23 23:30N 34°26' E 135°07'1019.2
2017-Apr-23 22:59N 34°18' E 135°00'919.3
2017-Apr-23 22:31N 34°09' E 134°59'1121.3
2017-Apr-23 22:01N 33°58' E 134°60'229 7.5
2017-Apr-22 15:27N 34°58' E 139°28'715.1
2017-Apr-22 15:01N 35°02' E 139°34'815.8
2017-Apr-22 14:30N 35°06' E 139°42'1212.3
2017-Apr-22 13:31N 35°19' E 139°44'612.9
2017-Apr-22 13:00N 35°25' E 139°44'611.5
2017-Apr-22 12:30N 35°30' E 139°46'0 0.7
2017-Apr-22 12:00N 35°30' E 139°46'0 0.0
2017-Apr-22 11:29N 35°30' E 139°46'0 0.0
2017-Apr-22 10:59N 35°30' E 139°46'0 0.0
2017-Apr-22 10:29N 35°30' E 139°46'0 0.0
2017-Apr-22 09:59N 35°30' E 139°46'0 0.0
2017-Apr-22 09:29N 35°30' E 139°46'0 0.0
2017-Apr-22 08:59N 35°30' E 139°46'0 0.0
2017-Apr-22 08:29N 35°30' E 139°46'0 0.0
2017-Apr-22 07:59N 35°30' E 139°46'0 0.0
2017-Apr-22 07:29N 35°30' E 139°46'0 0.0
2017-Apr-22 06:59N 35°30' E 139°46'0 0.0
2017-Apr-22 06:29N 35°30' E 139°46'0 0.0
2017-Apr-22 05:56N 35°30' E 139°46'0 0.0
2017-Apr-22 05:29N 35°30' E 139°46'0 0.0
2017-Apr-22 04:59N 35°30' E 139°46'0 0.0
2017-Apr-22 04:29N 35°30' E 139°46'1 2.7
2017-Apr-22 04:00N 35°30' E 139°44'4 8.5
2017-Apr-22 03:31N 35°26' E 139°45'611.7
2017-Apr-22 03:00N 35°20' E 139°44'4 8.6
2017-Apr-22 02:30N 35°19' E 139°39'0 0.0
2017-Apr-22 01:58N 35°19' E 139°39'0 0.0
2017-Apr-22 01:28N 35°19' E 139°39'0 0.0
2017-Apr-22 00:58N 35°19' E 139°39'0 0.0
2017-Apr-22 00:28N 35°19' E 139°39'0 0.0
2017-Apr-21 23:58N 35°19' E 139°39'0 0.0
2017-Apr-21 23:28N 35°19' E 139°39'0 0.0
2017-Apr-21 22:58N 35°19' E 139°39'0 0.0
2017-Apr-21 22:28N 35°19' E 139°39'0 0.0
2017-Apr-21 21:58N 35°19' E 139°39'0 0.0
2017-Apr-21 21:30N 35°19' E 139°39'4 8.3
2017-Apr-21 21:00N 35°19' E 139°44'612.1
2017-Apr-21 20:30N 35°13' E 139°47'713.4
2017-Apr-21 20:00N 35°06' E 139°44'715.1
2017-Apr-21 19:30N 35°01' E 139°38'815.5
2017-Apr-21 19:00N 34°54' E 139°33'815.1
2017-Apr-21 18:30N 34°50' E 139°25'22517.2
2017-Apr-21 05:25N 33°59' E 134°59'920.7
2017-Apr-21 04:59N 34°08' E 134°58'1321.1
2017-Apr-21 04:22N 34°21' E 134°60'820.7
2017-Apr-21 04:00N 34°26' E 135°06'1019.2
2017-Apr-21 03:30N 34°33' E 135°14'714.2
2017-Apr-21 03:01N 34°40' E 135°15'1 1.7
2017-Apr-21 02:29N 34°41' E 135°13'0 0.0
2017-Apr-21 01:59N 34°41' E 135°13'0 0.0
2017-Apr-21 01:29N 34°41' E 135°13'0 0.0
2017-Apr-21 00:59N 34°41' E 135°13'0 0.0
2017-Apr-21 00:29N 34°41' E 135°13'0 0.0
2017-Apr-20 23:59N 34°41' E 135°13'0 0.0
2017-Apr-20 23:29N 34°41' E 135°13'0 0.0
2017-Apr-20 23:00N 34°41' E 135°13'2 4.7
2017-Apr-20 22:30N 34°39' E 135°16'3 4.9
2017-Apr-20 22:00N 34°37' E 135°16'0 0.1
2017-Apr-20 21:26N 34°37' E 135°16'0 0.0
2017-Apr-20 20:50N 34°37' E 135°16'0 0.0
2017-Apr-20 20:26N 34°37' E 135°16'0 0.0
2017-Apr-20 19:56N 34°37' E 135°16'0 0.1
2017-Apr-20 19:14N 34°37' E 135°16'0 0.0
2017-Apr-20 18:56N 34°37' E 135°16'0 0.0
2017-Apr-20 18:26N 34°37' E 135°16'0 0.0
2017-Apr-20 17:56N 34°37' E 135°16'0 0.0
2017-Apr-20 17:26N 34°37' E 135°16'0 0.0
2017-Apr-20 16:56N 34°37' E 135°16'0 0.0
2017-Apr-20 16:26N 34°37' E 135°16'0 0.0
2017-Apr-20 15:56N 34°37' E 135°16'0 0.0
2017-Apr-20 15:20N 34°37' E 135°16'0 0.0
2017-Apr-20 14:56N 34°37' E 135°16'0 0.0
2017-Apr-20 13:56N 34°37' E 135°16'0 0.0
2017-Apr-20 13:26N 34°37' E 135°16'0 0.0
2017-Apr-20 12:50N 34°37' E 135°16'0 0.0
2017-Apr-20 12:26N 34°37' E 135°16'0 0.0
2017-Apr-20 11:50N 34°37' E 135°16'0 0.0
2017-Apr-20 11:26N 34°37' E 135°16'0 0.1
2017-Apr-20 10:56N 34°37' E 135°16'3 5.9
2017-Apr-20 10:30N 34°36' E 135°13'1019.5
2017-Apr-20 10:00N 34°37' E 135°01'1020.6
2017-Apr-20 09:30N 34°33' E 134°49'  
2017-Apr-17 08:25N 34°37' E 134°57'716.7
2017-Apr-17 08:00N 34°36' E 135°05'817.0
2017-Apr-17 07:30N 34°37' E 135°15'4 6.9
2017-Apr-17 07:00N 34°41' E 135°13'0 0.0
2017-Apr-17 06:30N 34°41' E 135°13'0 0.0
2017-Apr-17 06:00N 34°41' E 135°13'0 0.0
2017-Apr-17 05:24N 34°41' E 135°13'0 0.0
2017-Apr-17 04:54N 34°41' E 135°13'0 0.0
2017-Apr-17 04:30N 34°41' E 135°13'0 0.0
2017-Apr-17 04:00N 34°41' E 135°13'0 0.0
2017-Apr-17 03:30N 34°41' E 135°13'0 0.0
2017-Apr-17 02:54N 34°41' E 135°13'0 0.4
2017-Apr-17 02:30N 34°41' E 135°14'5 9.5
2017-Apr-17 02:00N 34°37' E 135°17'918.9
2017-Apr-17 01:30N 34°29' E 135°10'1120.7
2017-Apr-17 00:59N 34°21' E 135°02'1020.0
2017-Apr-17 00:31N 34°11' E 134°59'1121.8
2017-Apr-16 23:59N 34°00' E 135°01'220 5.9
2017-Apr-15 11:00N 34°51' E 139°20'917.1
2017-Apr-15 10:29N 34°58' E 139°27'816.6
2017-Apr-15 10:01N 35°02' E 139°35'817.0
2017-Apr-15 09:31N 35°07' E 139°43'815.0
2017-Apr-15 09:00N 35°15' E 139°46'611.1
2017-Apr-15 08:30N 35°19' E 139°43'612.5
2017-Apr-15 08:00N 35°26' E 139°44'510.4
2017-Apr-15 07:30N 35°30' E 139°46'0 0.7
2017-Apr-15 06:58N 35°30' E 139°46'0 0.0
2017-Apr-15 06:25N 35°30' E 139°46'0 0.0
2017-Apr-15 05:55N 35°30' E 139°46'0 0.0
2017-Apr-15 05:28N 35°30' E 139°46'0 0.0
2017-Apr-15 04:58N 35°30' E 139°46'0 0.0
2017-Apr-15 04:29N 35°30' E 139°46'0 0.0
2017-Apr-15 03:58N 35°30' E 139°46'0 0.0
2017-Apr-15 03:30N 35°30' E 139°46'3 6.8
2017-Apr-15 03:00N 35°29' E 139°42'612.0
2017-Apr-15 02:30N 35°24' E 139°46'612.3
2017-Apr-15 02:00N 35°19' E 139°41'2 4.1
2017-Apr-15 01:31N 35°19' E 139°39'0 0.0
2017-Apr-15 00:59N 35°19' E 139°39'0 0.0
2017-Apr-15 00:29N 35°19' E 139°39'0 0.0
2017-Apr-14 23:56N 35°19' E 139°39'0 0.0
2017-Apr-14 23:29N 35°19' E 139°39'0 0.0
2017-Apr-14 22:59N 35°19' E 139°39'0 0.0
2017-Apr-14 22:29N 35°19' E 139°39'0 0.0
2017-Apr-14 21:59N 35°19' E 139°39'0 0.0
2017-Apr-14 21:31N 35°19' E 139°39'2 3.4
2017-Apr-14 21:00N 35°19' E 139°41'0 0.2
2017-Apr-14 20:31N 35°19' E 139°41'0 0.0
2017-Apr-14 20:00N 35°19' E 139°41'0 0.1
2017-Apr-14 19:30N 35°19' E 139°41'0 0.2
2017-Apr-14 19:00N 35°19' E 139°41'0 0.2
2017-Apr-14 18:30N 35°19' E 139°41'0 0.0
2017-Apr-14 18:00N 35°19' E 139°41'0 0.0
2017-Apr-14 17:30N 35°19' E 139°41'0 0.1
2017-Apr-14 17:00N 35°19' E 139°41'0 0.1
2017-Apr-14 16:30N 35°19' E 139°41'0 0.3
2017-Apr-14 16:01N 35°19' E 139°41'0 0.2
2017-Apr-14 15:31N 35°19' E 139°41'0 0.1
2017-Apr-14 15:00N 35°19' E 139°41'0 0.2
2017-Apr-14 14:30N 35°19' E 139°41'0 0.1
2017-Apr-14 13:26N 35°19' E 139°41'0 0.3
2017-Apr-14 12:59N 35°19' E 139°41'0 0.1
2017-Apr-14 12:30N 35°19' E 139°41'2 3.7
2017-Apr-14 12:00N 35°19' E 139°43'612.1
2017-Apr-14 11:30N 35°14' E 139°47'816.8
2017-Apr-14 11:00N 35°06' E 139°43'1121.0
2017-Apr-14 10:30N 34°58' E 139°35'1221.1
2017-Apr-14 09:57N 34°51' E 139°24'  
Track history (hours):
 
Tides and Currents Weather Stations Pressure Air Temp Water Temp Dewpoint Dewpoint Depression Visibility Wind Speed Wind Dir Waves Ship Positions

Nichioh Maru

Last reported at 2017-Apr-24 05:24 UTC. Time now 2017-Apr-24 05:30 UTC.
Position N 34°36' E 134°56'.

Length 170 m; draft 6.5 m.

Type: Cargo ship. MMSI: 431003232.

Date/timePositionNaut miles runAvg speedWind from/ knotsBaromVisibWave heightAir tempDewpointWater temp
2017-Apr-24 05:24N 34°36' E 134°56'614.2
2017-Apr-24 05:00N 34°37' E 135°02'815.4
2017-Apr-24 04:30N 34°36' E 135°12'5 9.7
2017-Apr-24 04:00N 34°41' E 135°14'1 1.2
2017-Apr-24 03:29N 34°41' E 135°13'0 0.0
2017-Apr-24 02:59N 34°41' E 135°13'0 0.0
2017-Apr-24 02:29N 34°41' E 135°13'0 0.0
2017-Apr-24 01:59N 34°41' E 135°13'0 0.0
2017-Apr-24 01:17N 34°41' E 135°13'0 0.0
2017-Apr-24 01:01N 34°41' E 135°13'3 5.0
2017-Apr-24 00:30N 34°39' E 135°16'612.5
2017-Apr-24 00:00N 34°33' E 135°14'917.7
2017-Apr-23 23:30N 34°26' E 135°07'1019.2
2017-Apr-23 22:59N 34°18' E 135°00'919.3
2017-Apr-23 22:31N 34°09' E 134°59'1121.3
2017-Apr-23 22:01N 33°58' E 134°60'229 7.5
2017-Apr-22 15:27N 34°58' E 139°28'715.1
2017-Apr-22 15:01N 35°02' E 139°34'815.8
2017-Apr-22 14:30N 35°06' E 139°42'1212.3
2017-Apr-22 13:31N 35°19' E 139°44'612.9
2017-Apr-22 13:00N 35°25' E 139°44'611.5
2017-Apr-22 12:30N 35°30' E 139°46'0 0.7
2017-Apr-22 12:00N 35°30' E 139°46'0 0.0
2017-Apr-22 11:29N 35°30' E 139°46'0 0.0
2017-Apr-22 10:59N 35°30' E 139°46'0 0.0
2017-Apr-22 10:29N 35°30' E 139°46'0 0.0
2017-Apr-22 09:59N 35°30' E 139°46'0 0.0
2017-Apr-22 09:29N 35°30' E 139°46'0 0.0
2017-Apr-22 08:59N 35°30' E 139°46'0 0.0
2017-Apr-22 08:29N 35°30' E 139°46'0 0.0
2017-Apr-22 07:59N 35°30' E 139°46'0 0.0
2017-Apr-22 07:29N 35°30' E 139°46'0 0.0
2017-Apr-22 06:59N 35°30' E 139°46'0 0.0
2017-Apr-22 06:29N 35°30' E 139°46'0 0.0
2017-Apr-22 05:56N 35°30' E 139°46'0 0.0
2017-Apr-22 05:29N 35°30' E 139°46'0 0.0
2017-Apr-22 04:59N 35°30' E 139°46'0 0.0
2017-Apr-22 04:29N 35°30' E 139°46'1 2.7
2017-Apr-22 04:00N 35°30' E 139°44'4 8.5
2017-Apr-22 03:31N 35°26' E 139°45'611.7
2017-Apr-22 03:00N 35°20' E 139°44'4 8.6
2017-Apr-22 02:30N 35°19' E 139°39'0 0.0
2017-Apr-22 01:58N 35°19' E 139°39'0 0.0
2017-Apr-22 01:28N 35°19' E 139°39'0 0.0
2017-Apr-22 00:58N 35°19' E 139°39'0 0.0
2017-Apr-22 00:28N 35°19' E 139°39'0 0.0
2017-Apr-21 23:58N 35°19' E 139°39'0 0.0
2017-Apr-21 23:28N 35°19' E 139°39'0 0.0
2017-Apr-21 22:58N 35°19' E 139°39'0 0.0
2017-Apr-21 22:28N 35°19' E 139°39'0 0.0
2017-Apr-21 21:58N 35°19' E 139°39'0 0.0
2017-Apr-21 21:30N 35°19' E 139°39'4 8.3
2017-Apr-21 21:00N 35°19' E 139°44'612.1
2017-Apr-21 20:30N 35°13' E 139°47'713.4
2017-Apr-21 20:00N 35°06' E 139°44'715.1
2017-Apr-21 19:30N 35°01' E 139°38'815.5
2017-Apr-21 19:00N 34°54' E 139°33'815.1
2017-Apr-21 18:30N 34°50' E 139°25'22517.2
2017-Apr-21 05:25N 33°59' E 134°59'920.7
2017-Apr-21 04:59N 34°08' E 134°58'1321.1
2017-Apr-21 04:22N 34°21' E 134°60'820.7
2017-Apr-21 04:00N 34°26' E 135°06'1019.2
2017-Apr-21 03:30N 34°33' E 135°14'714.2
2017-Apr-21 03:01N 34°40' E 135°15'1 1.7
2017-Apr-21 02:29N 34°41' E 135°13'0 0.0
2017-Apr-21 01:59N 34°41' E 135°13'0 0.0
2017-Apr-21 01:29N 34°41' E 135°13'0 0.0
2017-Apr-21 00:59N 34°41' E 135°13'0 0.0
2017-Apr-21 00:29N 34°41' E 135°13'0 0.0
2017-Apr-20 23:59N 34°41' E 135°13'0 0.0
2017-Apr-20 23:29N 34°41' E 135°13'0 0.0
2017-Apr-20 23:00N 34°41' E 135°13'2 4.7
2017-Apr-20 22:30N 34°39' E 135°16'3 4.9
2017-Apr-20 22:00N 34°37' E 135°16'0 0.1
2017-Apr-20 21:26N 34°37' E 135°16'0 0.0
2017-Apr-20 20:50N 34°37' E 135°16'0 0.0
2017-Apr-20 20:26N 34°37' E 135°16'0 0.0
2017-Apr-20 19:56N 34°37' E 135°16'0 0.1
2017-Apr-20 19:14N 34°37' E 135°16'0 0.0
2017-Apr-20 18:56N 34°37' E 135°16'0 0.0
2017-Apr-20 18:26N 34°37' E 135°16'0 0.0
2017-Apr-20 17:56N 34°37' E 135°16'0 0.0
2017-Apr-20 17:26N 34°37' E 135°16'0 0.0
2017-Apr-20 16:56N 34°37' E 135°16'0 0.0
2017-Apr-20 16:26N 34°37' E 135°16'0 0.0
2017-Apr-20 15:56N 34°37' E 135°16'0 0.0
2017-Apr-20 15:20N 34°37' E 135°16'0 0.0
2017-Apr-20 14:56N 34°37' E 135°16'0 0.0
2017-Apr-20 13:56N 34°37' E 135°16'0 0.0
2017-Apr-20 13:26N 34°37' E 135°16'0 0.0
2017-Apr-20 12:50N 34°37' E 135°16'0 0.0
2017-Apr-20 12:26N 34°37' E 135°16'0 0.0
2017-Apr-20 11:50N 34°37' E 135°16'0 0.0
2017-Apr-20 11:26N 34°37' E 135°16'0 0.1
2017-Apr-20 10:56N 34°37' E 135°16'3 5.9
2017-Apr-20 10:30N 34°36' E 135°13'1019.5
2017-Apr-20 10:00N 34°37' E 135°01'1020.6
2017-Apr-20 09:30N 34°33' E 134°49'  
2017-Apr-17 08:25N 34°37' E 134°57'716.7
2017-Apr-17 08:00N 34°36' E 135°05'817.0
2017-Apr-17 07:30N 34°37' E 135°15'4 6.9
2017-Apr-17 07:00N 34°41' E 135°13'0 0.0
2017-Apr-17 06:30N 34°41' E 135°13'0 0.0
2017-Apr-17 06:00N 34°41' E 135°13'0 0.0
2017-Apr-17 05:24N 34°41' E 135°13'0 0.0
2017-Apr-17 04:54N 34°41' E 135°13'0 0.0
2017-Apr-17 04:30N 34°41' E 135°13'0 0.0
2017-Apr-17 04:00N 34°41' E 135°13'0 0.0
2017-Apr-17 03:30N 34°41' E 135°13'0 0.0
2017-Apr-17 02:54N 34°41' E 135°13'0 0.4
2017-Apr-17 02:30N 34°41' E 135°14'5 9.5
2017-Apr-17 02:00N 34°37' E 135°17'918.9
2017-Apr-17 01:30N 34°29' E 135°10'1120.7
2017-Apr-17 00:59N 34°21' E 135°02'1020.0
2017-Apr-17 00:31N 34°11' E 134°59'1121.8
2017-Apr-16 23:59N 34°00' E 135°01'220 5.9
2017-Apr-15 11:00N 34°51' E 139°20'917.1
2017-Apr-15 10:29N 34°58' E 139°27'816.6
2017-Apr-15 10:01N 35°02' E 139°35'817.0
2017-Apr-15 09:31N 35°07' E 139°43'815.0
2017-Apr-15 09:00N 35°15' E 139°46'611.1
2017-Apr-15 08:30N 35°19' E 139°43'612.5
2017-Apr-15 08:00N 35°26' E 139°44'510.4
2017-Apr-15 07:30N 35°30' E 139°46'0 0.7
2017-Apr-15 06:58N 35°30' E 139°46'0 0.0
2017-Apr-15 06:25N 35°30' E 139°46'0 0.0
2017-Apr-15 05:55N 35°30' E 139°46'0 0.0
2017-Apr-15 05:28N 35°30' E 139°46'0 0.0
2017-Apr-15 04:58N 35°30' E 139°46'0 0.0
2017-Apr-15 04:29N 35°30' E 139°46'0 0.0
2017-Apr-15 03:58N 35°30' E 139°46'0 0.0
2017-Apr-15 03:30N 35°30' E 139°46'3 6.8
2017-Apr-15 03:00N 35°29' E 139°42'612.0
2017-Apr-15 02:30N 35°24' E 139°46'612.3
2017-Apr-15 02:00N 35°19' E 139°41'2 4.1
2017-Apr-15 01:31N 35°19' E 139°39'0 0.0
2017-Apr-15 00:59N 35°19' E 139°39'0 0.0
2017-Apr-15 00:29N 35°19' E 139°39'0 0.0
2017-Apr-14 23:56N 35°19' E 139°39'0 0.0
2017-Apr-14 23:29N 35°19' E 139°39'0 0.0
2017-Apr-14 22:59N 35°19' E 139°39'0 0.0
2017-Apr-14 22:29N 35°19' E 139°39'0 0.0
2017-Apr-14 21:59N 35°19' E 139°39'0 0.0
2017-Apr-14 21:31N 35°19' E 139°39'2 3.4
2017-Apr-14 21:00N 35°19' E 139°41'0 0.2
2017-Apr-14 20:31N 35°19' E 139°41'0 0.0
2017-Apr-14 20:00N 35°19' E 139°41'0 0.1
2017-Apr-14 19:30N 35°19' E 139°41'0 0.2
2017-Apr-14 19:00N 35°19' E 139°41'0 0.2
2017-Apr-14 18:30N 35°19' E 139°41'0 0.0
2017-Apr-14 18:00N 35°19' E 139°41'0 0.0
2017-Apr-14 17:30N 35°19' E 139°41'0 0.1
2017-Apr-14 17:00N 35°19' E 139°41'0 0.1
2017-Apr-14 16:30N 35°19' E 139°41'0 0.3
2017-Apr-14 16:01N 35°19' E 139°41'0 0.2
2017-Apr-14 15:31N 35°19' E 139°41'0 0.1
2017-Apr-14 15:00N 35°19' E 139°41'0 0.2
2017-Apr-14 14:30N 35°19' E 139°41'0 0.1
2017-Apr-14 13:26N 35°19' E 139°41'0 0.3
2017-Apr-14 12:59N 35°19' E 139°41'0 0.1
2017-Apr-14 12:30N 35°19' E 139°41'2 3.7
2017-Apr-14 12:00N 35°19' E 139°43'612.1
2017-Apr-14 11:30N 35°14' E 139°47'816.8
2017-Apr-14 11:00N 35°06' E 139°43'1121.0
2017-Apr-14 10:30N 34°58' E 139°35'1221.1
2017-Apr-14 09:57N 34°51' E 139°24'  

Dump ship's entire track history